Time;durP1;ratioP1;P1;durP2;ratioP2;P2;SDS_P1;SDS_P2;PMS_P1;PMS_P2;Temp;Humidity;BMP_temperature;BMP_pressure;BME280_temperature;BME280_humidity;BME280_pressure;Samples;Min_cycle;Max_cycle;Signal;HPM_P1;HPM_P2
2022/03/04 00:01:18;;;;;;;8.88;6.18;;;5.20;83.00;;;;;;5069840;28;20602;-60
2022/03/04 00:03:44;;;;;;;8.10;5.50;;;5.20;82.90;;;;;;5076911;28;20129;-59
2022/03/04 00:06:10;;;;;;;9.05;7.07;;;5.20;83.00;;;;;;5066219;28;20032;-60
2022/03/04 00:08:36;;;;;;;9.30;6.80;;;5.20;82.90;;;;;;5073034;28;20035;-60
2022/03/04 00:11:02;;;;;;;10.98;6.60;;;5.30;82.80;;;;;;5071998;28;20028;-60
2022/03/04 00:13:31;;;;;;;10.32;7.32;;;5.20;82.90;;;;;;5067148;28;20099;-60
2022/03/04 00:15:57;;;;;;;8.57;5.68;;;5.30;82.80;;;;;;5066563;28;20040;-59
2022/03/04 00:18:23;;;;;;;8.35;5.97;;;5.20;82.80;;;;;;5061735;28;20020;-59
2022/03/04 00:20:49;;;;;;;9.25;7.00;;;5.20;82.90;;;;;;5063702;28;20039;-59
2022/03/04 00:23:17;;;;;;;8.70;6.95;;;5.20;82.80;;;;;;5068132;28;20025;-59
2022/03/04 00:25:43;;;;;;;8.68;7.25;;;5.20;82.60;;;;;;5063195;28;20025;-60
2022/03/04 00:28:08;;;;;;;8.25;6.28;;;5.20;82.70;;;;;;5062802;28;20100;-60
2022/03/04 00:30:34;;;;;;;8.82;6.05;;;5.20;82.60;;;;;;5070249;28;20191;-60
2022/03/04 00:33:00;;;;;;;7.40;5.38;;;5.20;82.60;;;;;;5065131;28;20082;-59
2022/03/04 00:35:25;;;;;;;10.55;7.80;;;5.20;82.70;;;;;;5056731;28;20063;-58
2022/03/04 00:37:51;;;;;;;10.65;7.00;;;5.20;82.80;;;;;;5063695;28;20024;-59
2022/03/04 00:40:18;;;;;;;9.80;7.28;;;5.20;82.70;;;;;;5074305;28;20068;-59
2022/03/04 00:42:44;;;;;;;7.78;5.63;;;5.20;82.80;;;;;;5061937;28;20029;-59
2022/03/04 00:45:10;;;;;;;7.25;5.22;;;5.20;82.80;;;;;;5061181;28;20094;-59
2022/03/04 00:47:36;;;;;;;8.30;6.35;;;5.10;82.70;;;;;;5067887;28;20062;-60
2022/03/04 00:50:03;;;;;;;9.38;7.60;;;5.10;82.70;;;;;;5056433;28;20021;-59
2022/03/04 00:52:29;;;;;;;9.48;5.78;;;5.20;82.80;;;;;;5068182;28;20037;-59
2022/03/04 00:54:55;;;;;;;8.65;5.90;;;5.10;82.70;;;;;;5063348;28;20067;-59
2022/03/04 00:57:21;;;;;;;9.32;6.90;;;5.10;82.80;;;;;;5069778;28;20056;-60
2022/03/04 00:59:46;;;;;;;7.60;5.57;;;5.10;82.80;;;;;;5068024;28;20039;-60
2022/03/04 01:02:12;;;;;;;7.00;4.80;;;5.10;82.70;;;;;;5063712;28;20068;-59
2022/03/04 01:04:39;;;;;;;9.20;6.03;;;5.10;82.80;;;;;;5062929;28;20116;-59
2022/03/04 01:07:05;;;;;;;7.72;6.70;;;5.10;82.80;;;;;;5062683;28;20280;-59
2022/03/04 01:09:31;;;;;;;7.70;5.38;;;5.10;82.90;;;;;;5080777;28;20093;-59
2022/03/04 01:11:57;;;;;;;8.10;5.57;;;5.10;82.80;;;;;;5061425;28;20158;-59
2022/03/04 01:14:22;;;;;;;8.38;5.68;;;5.10;82.90;;;;;;5064529;28;20032;-60
2022/03/04 01:16:48;;;;;;;8.68;6.57;;;5.10;82.90;;;;;;5053607;28;20400;-59
2022/03/04 01:19:14;;;;;;;8.25;5.18;;;5.10;82.90;;;;;;5065700;28;20096;-59
2022/03/04 01:21:40;;;;;;;7.75;5.15;;;5.10;82.80;;;;;;5066078;28;20388;-59
2022/03/04 01:24:07;;;;;;;7.72;5.43;;;5.10;82.80;;;;;;5062799;28;20048;-60
2022/03/04 01:26:33;;;;;;;8.85;6.15;;;5.00;82.70;;;;;;5064495;28;20571;-60
2022/03/04 01:28:58;;;;;;;7.80;5.93;;;5.00;82.70;;;;;;5069072;28;20131;-59
2022/03/04 01:31:24;;;;;;;7.53;4.95;;;5.00;82.90;;;;;;5066206;28;20033;-58
2022/03/04 01:33:50;;;;;;;7.53;5.30;;;5.00;82.70;;;;;;5069211;28;20063;-59
2022/03/04 01:36:16;;;;;;;6.55;4.35;;;5.00;82.80;;;;;;5065458;28;20503;-59
2022/03/04 01:38:42;;;;;;;6.93;4.60;;;5.00;82.80;;;;;;5068498;28;20049;-59
2022/03/04 01:41:08;;;;;;;8.32;6.38;;;5.00;82.80;;;;;;5070999;28;20051;-59
2022/03/04 01:43:35;;;;;;;7.88;5.97;;;5.00;82.90;;;;;;5066436;28;20032;-59
2022/03/04 01:46:17;;;;;;;7.25;5.40;;;5.00;82.70;;;;;;5062648;28;20029;-59
2022/03/04 01:48:45;;;;;;;6.47;5.00;;;5.00;82.70;;;;;;5056472;28;20039;-59
2022/03/04 01:51:12;;;;;;;6.28;4.70;;;5.00;82.80;;;;;;5070088;28;20028;-60
2022/03/04 01:53:40;;;;;;;6.40;4.53;;;5.00;82.90;;;;;;5060199;28;20025;-60
2022/03/04 01:56:06;;;;;;;7.57;5.13;;;5.00;82.90;;;;;;5066997;28;20032;-59
2022/03/04 01:58:32;;;;;;;7.57;5.60;;;5.00;83.00;;;;;;5059655;28;20389;-60
2022/03/04 02:00:58;;;;;;;8.32;6.15;;;5.00;83.00;;;;;;5069722;28;20020;-59
2022/03/04 02:03:25;;;;;;;10.10;4.93;;;5.00;83.00;;;;;;5070632;28;20050;-60
2022/03/04 02:05:51;;;;;;;8.05;5.82;;;5.00;83.10;;;;;;5055424;28;20028;-59
2022/03/04 02:08:17;;;;;;;7.90;5.88;;;5.00;83.00;;;;;;5066741;28;20020;-59
2022/03/04 02:10:42;;;;;;;7.68;5.75;;;5.00;83.10;;;;;;5068635;28;20502;-59
2022/03/04 02:13:09;;;;;;;7.45;5.18;;;5.00;83.00;;;;;;5071998;28;20484;-60
2022/03/04 02:15:35;;;;;;;8.63;6.50;;;5.00;83.00;;;;;;5070883;28;20033;-60
2022/03/04 02:18:12;;;;;;;7.68;5.75;;;5.00;83.00;;;;;;5072471;28;20028;-59
2022/03/04 02:20:49;;;;;;;7.28;5.55;;;5.00;83.00;;;;;;5070988;28;20056;-60
2022/03/04 02:23:15;;;;;;;8.13;5.72;;;5.00;83.10;;;;;;5063579;28;20424;-59
2022/03/04 02:25:45;;;;;;;8.70;5.38;;;5.00;83.00;;;;;;5066977;28;20119;-60
2022/03/04 02:28:11;;;;;;;8.95;7.18;;;5.00;83.00;;;;;;5079734;28;20036;-59
2022/03/04 02:30:37;;;;;;;8.38;6.13;;;5.00;83.10;;;;;;5077015;28;20531;-60
2022/03/04 02:33:05;;;;;;;8.32;6.05;;;5.00;82.90;;;;;;5065111;28;20485;-60
2022/03/04 02:35:32;;;;;;;7.95;5.85;;;5.00;83.00;;;;;;5063195;28;20082;-59
2022/03/04 02:37:58;;;;;;;8.70;5.93;;;4.90;83.00;;;;;;5055882;28;20392;-60
2022/03/04 02:40:24;;;;;;;7.32;5.57;;;5.00;83.20;;;;;;5058908;28;20021;-59
2022/03/04 02:42:50;;;;;;;8.02;5.05;;;4.90;83.10;;;;;;5054375;28;20029;-60
2022/03/04 02:45:17;;;;;;;9.90;7.43;;;5.00;83.20;;;;;;5074995;28;20032;-60
2022/03/04 02:47:43;;;;;;;9.68;6.55;;;5.00;83.20;;;;;;5071034;28;20024;-60
2022/03/04 02:50:10;;;;;;;8.80;6.15;;;5.00;83.00;;;;;;5062867;28;20373;-60
2022/03/04 02:52:35;;;;;;;10.68;7.45;;;5.00;83.00;;;;;;5073657;28;20028;-60
2022/03/04 02:55:02;;;;;;;9.75;5.93;;;5.00;83.10;;;;;;5072962;28;20507;-60
2022/03/04 02:57:27;;;;;;;8.25;5.55;;;5.00;83.00;;;;;;5071886;28;20107;-59
2022/03/04 02:59:53;;;;;;;8.48;5.75;;;4.90;82.90;;;;;;5076265;28;20455;-60
2022/03/04 03:02:19;;;;;;;8.35;5.65;;;5.00;82.90;;;;;;5070548;28;20021;-59
2022/03/04 03:04:45;;;;;;;7.32;5.55;;;4.90;82.90;;;;;;5057624;28;20035;-60
2022/03/04 03:07:10;;;;;;;9.80;6.60;;;5.00;83.00;;;;;;5065793;28;20028;-60
2022/03/04 03:09:36;;;;;;;8.38;5.97;;;4.90;82.90;;;;;;5074029;28;20444;-60
2022/03/04 03:12:02;;;;;;;9.38;6.43;;;4.90;82.90;;;;;;5072757;28;20413;-59
2022/03/04 03:14:28;;;;;;;7.60;5.88;;;4.90;82.90;;;;;;5067013;28;20040;-59
2022/03/04 03:16:53;;;;;;;8.50;5.68;;;4.90;83.00;;;;;;5066019;28;20068;-59
2022/03/04 03:19:19;;;;;;;8.05;5.70;;;4.90;82.90;;;;;;5073087;28;20021;-59
2022/03/04 03:21:45;;;;;;;9.20;7.22;;;4.90;83.00;;;;;;5074277;28;20417;-59
2022/03/04 03:24:10;;;;;;;8.02;5.70;;;4.90;82.90;;;;;;5069651;28;20476;-59
2022/03/04 03:26:36;;;;;;;8.20;5.45;;;4.90;82.60;;;;;;5073289;28;20481;-60
2022/03/04 03:29:02;;;;;;;8.88;6.30;;;4.90;82.70;;;;;;5075098;28;20107;-60
2022/03/04 03:31:28;;;;;;;8.68;6.57;;;4.90;82.70;;;;;;5073287;28;20028;-59
2022/03/04 03:33:54;;;;;;;8.00;5.57;;;4.90;82.80;;;;;;5065413;28;20040;-59
2022/03/04 03:36:20;;;;;;;9.13;6.03;;;4.90;82.70;;;;;;5067255;28;20082;-60
2022/03/04 03:38:46;;;;;;;10.48;6.63;;;4.90;82.70;;;;;;5062544;28;20079;-60
2022/03/04 03:41:12;;;;;;;9.85;6.25;;;4.90;82.70;;;;;;5060902;28;20099;-60
2022/03/04 03:43:38;;;;;;;9.05;5.93;;;4.90;82.70;;;;;;5067313;28;20111;-60
2022/03/04 03:46:04;;;;;;;7.93;6.30;;;4.80;82.60;;;;;;5064435;28;20058;-60
2022/03/04 03:48:30;;;;;;;7.93;5.65;;;4.90;82.60;;;;;;5070932;28;20025;-60
2022/03/04 03:50:56;;;;;;;8.18;6.22;;;4.80;82.40;;;;;;5062771;28;20054;-60
2022/03/04 03:53:21;;;;;;;9.07;5.90;;;4.80;82.30;;;;;;5076519;28;20031;-59
2022/03/04 03:55:47;;;;;;;9.07;5.70;;;4.80;82.30;;;;;;5079477;28;20025;-60
2022/03/04 03:58:13;;;;;;;8.00;5.45;;;4.80;82.30;;;;;;5066397;28;20016;-60
2022/03/04 04:00:38;;;;;;;9.07;6.28;;;4.80;82.30;;;;;;5068761;28;20039;-60
2022/03/04 04:03:04;;;;;;;8.40;6.20;;;4.80;82.30;;;;;;5070217;28;20414;-59
2022/03/04 04:05:30;;;;;;;8.05;5.82;;;4.80;82.30;;;;;;5074415;28;20032;-60
2022/03/04 04:07:56;;;;;;;8.20;6.30;;;4.80;82.20;;;;;;5064435;28;20060;-58
2022/03/04 04:10:22;;;;;;;9.38;5.93;;;4.70;82.20;;;;;;5072262;28;20471;-60
2022/03/04 04:12:48;;;;;;;8.07;5.97;;;4.70;82.40;;;;;;5069536;28;20254;-60
2022/03/04 04:15:13;;;;;;;6.85;4.88;;;4.70;82.50;;;;;;5064813;28;20116;-60
2022/03/04 04:17:39;;;;;;;8.45;6.07;;;4.70;82.50;;;;;;5067392;28;20527;-59
2022/03/04 04:20:06;;;;;;;8.52;6.28;;;4.70;82.60;;;;;;5059565;28;20036;-60
2022/03/04 04:22:32;;;;;;;9.00;5.55;;;4.70;82.40;;;;;;5058832;28;20021;-59
2022/03/04 04:24:57;;;;;;;7.15;5.40;;;4.80;82.40;;;;;;5056453;28;20036;-60
2022/03/04 04:27:23;;;;;;;7.20;6.00;;;4.70;82.30;;;;;;5069626;28;20050;-59
2022/03/04 04:29:49;;;;;;;10.77;6.82;;;4.80;82.30;;;;;;5066265;28;20671;-59
2022/03/04 04:32:14;;;;;;;9.20;5.60;;;4.80;82.20;;;;;;5061479;28;20024;-60
2022/03/04 04:34:40;;;;;;;7.47;5.38;;;4.70;82.30;;;;;;5064054;28;20017;-59
2022/03/04 04:37:06;;;;;;;8.35;5.45;;;4.70;82.30;;;;;;5067141;28;20039;-59
2022/03/04 04:39:31;;;;;;;8.60;5.78;;;4.70;82.30;;;;;;5077894;28;20527;-59
2022/03/04 04:41:57;;;;;;;7.97;5.80;;;4.70;82.30;;;;;;5061088;28;20025;-59
2022/03/04 04:44:23;;;;;;;9.23;6.53;;;4.80;82.30;;;;;;5071705;28;20040;-59
2022/03/04 04:46:49;;;;;;;8.93;6.15;;;4.70;82.30;;;;;;5071934;28;20033;-60
2022/03/04 04:49:14;;;;;;;8.90;6.20;;;4.70;82.30;;;;;;5073197;28;20403;-59
2022/03/04 04:51:40;;;;;;;8.90;6.00;;;4.70;82.30;;;;;;5064308;28;20505;-59
2022/03/04 04:54:06;;;;;;;9.13;5.90;;;4.70;82.30;;;;;;5072426;28;20222;-60
2022/03/04 04:56:32;;;;;;;8.70;6.15;;;4.70;82.50;;;;;;5069168;28;20028;-59
2022/03/04 04:58:58;;;;;;;8.60;6.18;;;4.70;82.50;;;;;;5063548;28;20039;-60
2022/03/04 05:01:23;;;;;;;10.02;5.50;;;4.70;82.60;;;;;;5066121;28;20043;-59
2022/03/04 05:03:49;;;;;;;6.60;4.97;;;4.70;82.60;;;;;;5069927;28;20023;-59
2022/03/04 05:06:15;;;;;;;11.02;6.05;;;4.70;82.60;;;;;;5071151;28;20082;-59
2022/03/04 05:08:40;;;;;;;9.15;5.65;;;4.70;82.70;;;;;;5076849;28;20020;-59
2022/03/04 05:11:06;;;;;;;9.32;6.10;;;4.70;82.60;;;;;;5070656;28;20033;-59
2022/03/04 05:13:32;;;;;;;9.35;6.05;;;4.70;82.60;;;;;;5079548;28;20039;-59
2022/03/04 05:15:57;;;;;;;8.40;5.65;;;4.70;82.60;;;;;;5071079;28;20032;-59
2022/03/04 05:18:23;;;;;;;10.13;5.38;;;4.70;82.60;;;;;;5066015;28;20023;-59
2022/03/04 05:20:49;;;;;;;9.02;5.63;;;4.70;82.60;;;;;;5069757;28;20551;-60
2022/03/04 05:23:58;;;;;;;9.57;6.35;;;4.70;82.70;;;;;;5067049;28;20039;-58
2022/03/04 05:26:00;;;;;;;8.07;5.50;;;4.70;82.40;;;;;;5072291;28;20028;-59
2022/03/04 05:28:26;;;;;;;9.25;6.28;;;4.70;82.60;;;;;;5068844;28;20115;-59
2022/03/04 05:30:52;;;;;;;10.23;5.82;;;4.70;82.50;;;;;;5076610;28;20024;-59
2022/03/04 05:33:18;;;;;;;9.63;6.22;;;4.70;82.60;;;;;;5071611;28;20036;-59
2022/03/04 05:35:43;;;;;;;9.80;6.35;;;4.70;82.60;;;;;;5069883;28;20115;-59
2022/03/04 05:38:09;;;;;;;9.40;6.32;;;4.70;82.60;;;;;;5065529;28;20033;-59
2022/03/04 05:40:35;;;;;;;8.27;5.93;;;4.70;82.70;;;;;;5067246;28;20716;-59
2022/03/04 05:43:01;;;;;;;10.27;6.30;;;4.70;82.60;;;;;;5071855;28;20483;-59
2022/03/04 05:45:26;;;;;;;9.15;6.50;;;4.80;82.60;;;;;;5067717;28;20036;-60
2022/03/04 05:47:52;;;;;;;10.23;6.32;;;4.70;82.50;;;;;;5069112;28;20040;-59
2022/03/04 05:50:18;;;;;;;8.43;5.82;;;4.80;82.30;;;;;;5066613;28;20500;-58
2022/03/04 05:52:43;;;;;;;11.18;5.82;;;4.80;82.30;;;;;;5060348;28;20029;-59
2022/03/04 05:55:09;;;;;;;9.73;6.43;;;4.80;82.30;;;;;;5068981;28;20043;-59
2022/03/04 05:57:35;;;;;;;9.02;5.20;;;4.80;82.10;;;;;;5078597;28;20074;-59
2022/03/04 06:00:01;;;;;;;8.00;5.93;;;4.80;82.00;;;;;;5069696;28;20476;-59
2022/03/04 06:02:28;;;;;;;9.18;6.53;;;4.80;82.10;;;;;;5062790;28;20025;-59
2022/03/04 06:04:54;;;;;;;8.60;6.60;;;4.80;82.00;;;;;;5061801;28;20024;-59
2022/03/04 06:07:20;;;;;;;9.73;6.32;;;4.80;82.00;;;;;;5064038;28;20559;-59
2022/03/04 06:09:45;;;;;;;9.27;5.85;;;4.80;81.90;;;;;;5064501;28;20526;-59
2022/03/04 06:12:11;;;;;;;8.52;6.00;;;4.80;81.90;;;;;;5066410;28;20075;-59
2022/03/04 06:14:37;;;;;;;9.70;7.18;;;4.80;82.00;;;;;;5046659;28;20078;-59
2022/03/04 06:17:04;;;;;;;10.02;6.63;;;4.80;82.00;;;;;;5066034;28;20033;-60
2022/03/04 06:19:29;;;;;;;8.10;5.88;;;4.80;82.10;;;;;;5060149;28;20091;-60
2022/03/04 06:21:55;;;;;;;11.07;6.30;;;4.80;82.00;;;;;;5045064;28;20028;-59
2022/03/04 06:24:21;;;;;;;9.10;5.90;;;4.80;82.20;;;;;;5072858;28;20024;-60
2022/03/04 06:26:47;;;;;;;9.55;6.53;;;4.80;82.10;;;;;;5070891;28;20054;-59
2022/03/04 06:29:13;;;;;;;8.85;6.13;;;4.90;82.20;;;;;;5070349;28;20024;-60
2022/03/04 06:31:39;;;;;;;9.43;6.07;;;4.90;82.30;;;;;;5075418;28;20043;-60
2022/03/04 06:34:05;;;;;;;9.57;7.32;;;4.90;82.40;;;;;;5069554;28;20036;-60
2022/03/04 06:36:30;;;;;;;9.32;6.32;;;4.90;82.40;;;;;;5071438;28;20032;-60
2022/03/04 06:38:56;;;;;;;11.15;7.10;;;5.00;82.30;;;;;;5067647;28;20041;-59
2022/03/04 06:41:22;;;;;;;12.68;8.98;;;5.00;82.30;;;;;;5067863;28;20044;-59
2022/03/04 06:43:48;;;;;;;13.95;8.70;;;5.00;82.30;;;;;;5070969;28;20028;-59
2022/03/04 06:46:15;;;;;;;12.10;8.07;;;5.00;82.20;;;;;;5071527;28;20033;-60
2022/03/04 06:48:41;;;;;;;11.23;6.97;;;5.10;82.20;;;;;;5072837;28;20094;-59
2022/03/04 06:51:07;;;;;;;13.13;9.07;;;5.10;82.30;;;;;;5068576;28;20052;-59
2022/03/04 06:53:33;;;;;;;15.10;9.32;;;5.10;82.30;;;;;;5071829;28;20033;-60
2022/03/04 06:55:59;;;;;;;16.42;9.77;;;5.10;82.10;;;;;;5072587;28;20045;-59
2022/03/04 06:58:25;;;;;;;13.77;9.25;;;5.10;82.10;;;;;;5072555;28;20056;-59
2022/03/04 07:00:51;;;;;;;14.60;10.88;;;5.20;82.20;;;;;;5066255;28;20127;-59
2022/03/04 07:03:17;;;;;;;17.25;10.45;;;5.20;82.30;;;;;;5068576;28;20516;-60
2022/03/04 07:05:46;;;;;;;15.80;10.00;;;5.20;82.00;;;;;;5072396;28;20032;-60
2022/03/04 07:08:12;;;;;;;14.05;10.20;;;5.20;82.10;;;;;;5066728;28;20039;-59
2022/03/04 07:10:45;;;;;;;17.35;11.85;;;5.30;82.00;;;;;;5070504;28;20141;-59
2022/03/04 07:13:13;;;;;;;18.33;10.05;;;5.30;81.80;;;;;;5070763;28;20033;-59
2022/03/04 07:15:40;;;;;;;16.73;11.20;;;5.40;81.90;;;;;;5063049;28;20031;-59
2022/03/04 07:18:05;;;;;;;15.60;11.50;;;5.40;81.80;;;;;;5065777;28;20016;-60
2022/03/04 07:20:31;;;;;;;17.85;11.25;;;5.40;81.30;;;;;;5060812;28;20601;-60
2022/03/04 07:22:59;;;;;;;17.35;10.88;;;5.40;81.00;;;;;;5067469;28;20120;-60
2022/03/04 07:25:24;;;;;;;17.15;10.27;;;5.40;81.00;;;;;;5062968;28;20052;-59
2022/03/04 07:27:50;;;;;;;16.08;11.35;;;5.40;81.00;;;;;;5068039;28;20079;-60
2022/03/04 07:30:17;;;;;;;14.07;9.68;;;5.50;81.10;;;;;;5069450;28;20036;-59
2022/03/04 07:32:43;;;;;;;16.00;11.45;;;5.40;81.00;;;;;;5066502;28;20044;-60
2022/03/04 07:35:11;;;;;;;14.70;10.95;;;5.50;81.00;;;;;;5066799;28;20489;-60
2022/03/04 07:37:41;;;;;;;15.40;10.75;;;5.50;81.00;;;;;;5064307;28;20498;-59
2022/03/04 07:40:10;;;;;;;14.88;10.65;;;5.60;80.80;;;;;;5069091;28;20044;-60
2022/03/04 07:42:36;;;;;;;15.32;11.57;;;5.60;80.50;;;;;;5063952;28;20035;-60
2022/03/04 07:45:03;;;;;;;14.73;9.45;;;5.70;80.40;;;;;;5069182;28;20085;-60
2022/03/04 07:47:29;;;;;;;17.38;12.38;;;5.70;79.50;;;;;;5068178;28;20279;-60
2022/03/04 07:49:57;;;;;;;16.58;9.88;;;5.70;79.40;;;;;;5057303;28;20029;-60
2022/03/04 07:52:28;;;;;;;14.05;10.48;;;5.70;79.20;;;;;;5055550;28;20040;-60
2022/03/04 07:54:54;;;;;;;15.00;9.63;;;5.70;79.40;;;;;;5057302;28;20039;-62
2022/03/04 07:57:20;;;;;;;13.88;11.05;;;5.70;79.20;;;;;;5061641;28;20272;-61
2022/03/04 07:59:46;;;;;;;15.45;9.77;;;5.80;79.10;;;;;;5053015;28;20020;-61
2022/03/04 08:02:11;;;;;;;11.98;8.98;;;5.80;78.60;;;;;;5035039;28;20033;-61
2022/03/04 08:04:37;;;;;;;15.52;10.75;;;5.80;78.90;;;;;;5061543;28;20028;-61
2022/03/04 08:07:03;;;;;;;15.50;10.50;;;5.90;78.60;;;;;;5058751;28;20530;-61
2022/03/04 08:09:29;;;;;;;16.52;9.10;;;6.00;78.10;;;;;;5062087;28;20120;-61
2022/03/04 08:11:55;;;;;;;14.88;9.93;;;6.00;77.90;;;;;;5057452;28;20891;-60
2022/03/04 08:14:20;;;;;;;13.30;8.57;;;6.00;77.50;;;;;;5061620;28;20047;-61
2022/03/04 08:16:46;;;;;;;13.15;9.73;;;6.00;77.10;;;;;;5060988;28;20432;-61
2022/03/04 08:19:12;;;;;;;13.02;9.32;;;6.10;77.10;;;;;;5060674;28;20029;-61
2022/03/04 08:21:38;;;;;;;13.07;9.82;;;6.10;76.70;;;;;;5064754;28;20035;-61
2022/03/04 08:24:04;;;;;;;11.60;7.55;;;6.20;76.40;;;;;;5062730;28;20444;-61
2022/03/04 08:26:31;;;;;;;15.38;10.98;;;6.20;76.40;;;;;;5056513;28;20082;-63
2022/03/04 08:28:56;;;;;;;16.25;8.63;;;6.30;76.40;;;;;;5059900;28;20138;-62
2022/03/04 08:31:22;;;;;;;13.55;10.23;;;6.30;76.30;;;;;;5054028;28;20029;-62
2022/03/04 08:33:48;;;;;;;11.00;9.32;;;6.40;76.00;;;;;;5064323;28;20367;-62
2022/03/04 08:36:13;;;;;;;11.65;8.23;;;6.40;75.60;;;;;;5064213;28;20039;-62
2022/03/04 08:38:40;;;;;;;12.13;8.48;;;6.40;75.10;;;;;;5064197;28;20885;-62
2022/03/04 08:41:05;;;;;;;12.18;7.60;;;6.50;74.80;;;;;;5062777;28;20107;-62
2022/03/04 08:43:34;;;;;;;11.75;8.80;;;6.50;74.90;;;;;;5066694;28;20115;-62
2022/03/04 08:46:01;;;;;;;10.95;8.10;;;6.60;74.80;;;;;;5060151;28;20107;-62
2022/03/04 08:48:27;;;;;;;12.98;8.13;;;6.60;74.70;;;;;;5061149;28;20037;-62
2022/03/04 08:50:53;;;;;;;11.95;8.85;;;6.70;74.30;;;;;;5061269;28;20054;-62
2022/03/04 08:53:18;;;;;;;10.35;7.53;;;6.80;73.90;;;;;;5056998;28;20051;-62
2022/03/04 08:55:45;;;;;;;10.40;8.05;;;6.80;73.60;;;;;;5053990;28;20400;-62
2022/03/04 08:58:11;;;;;;;10.38;7.97;;;6.90;73.30;;;;;;5055873;28;20029;-62
2022/03/04 09:00:38;;;;;;;10.40;7.50;;;6.90;73.40;;;;;;5064936;28;20074;-62
2022/03/04 09:03:04;;;;;;;9.73;7.57;;;7.00;73.20;;;;;;5058852;28;20024;-62
2022/03/04 09:05:31;;;;;;;9.63;7.68;;;7.00;73.40;;;;;;5043937;28;20508;-62
2022/03/04 09:07:57;;;;;;;10.02;6.95;;;7.10;72.40;;;;;;5042444;28;20460;-62
2022/03/04 09:10:23;;;;;;;10.73;7.35;;;7.10;72.00;;;;;;5057355;28;20043;-62
2022/03/04 09:12:49;;;;;;;8.82;7.28;;;7.10;71.60;;;;;;5058104;28;20021;-62
2022/03/04 09:15:15;;;;;;;9.50;6.97;;;7.10;71.60;;;;;;5056919;28;20024;-62
2022/03/04 09:17:41;;;;;;;7.95;7.13;;;7.10;71.60;;;;;;5053158;28;20037;-62
2022/03/04 09:20:08;;;;;;;8.32;7.30;;;7.10;71.50;;;;;;5057721;28;20163;-62
2022/03/04 09:22:34;;;;;;;9.35;7.07;;;7.10;70.90;;;;;;5059353;28;20540;-62
2022/03/04 09:25:00;;;;;;;8.65;6.68;;;7.10;70.80;;;;;;5061418;28;20139;-62
2022/03/04 09:27:26;;;;;;;8.73;7.28;;;7.10;70.80;;;;;;5060715;28;20548;-62
2022/03/04 09:29:51;;;;;;;8.57;6.82;;;7.10;70.50;;;;;;5063535;28;20032;-62
2022/03/04 09:32:17;;;;;;;8.68;7.20;;;7.00;70.50;;;;;;5064223;28;20488;-62
2022/03/04 09:34:43;;;;;;;8.07;6.47;;;7.00;70.60;;;;;;5065438;28;20028;-62
2022/03/04 09:37:09;;;;;;;7.88;6.30;;;7.00;70.60;;;;;;5059575;28;20381;-62
2022/03/04 09:39:34;;;;;;;8.13;6.35;;;7.00;70.50;;;;;;5057590;28;20067;-62
2022/03/04 09:42:00;;;;;;;9.15;6.82;;;7.00;70.40;;;;;;5062835;28;20464;-62
2022/03/04 09:44:26;;;;;;;8.85;6.80;;;6.90;70.40;;;;;;5061371;28;20523;-62
2022/03/04 09:46:53;;;;;;;9.25;6.65;;;6.80;70.50;;;;;;5059945;28;20036;-62
2022/03/04 09:49:20;;;;;;;10.10;7.20;;;6.80;70.50;;;;;;5058519;28;20571;-61
2022/03/04 09:51:46;;;;;;;8.32;6.40;;;6.80;70.70;;;;;;5059509;28;20040;-62
2022/03/04 09:54:12;;;;;;;7.88;6.32;;;6.80;70.70;;;;;;5060961;28;20028;-62
2022/03/04 09:56:38;;;;;;;8.20;6.53;;;6.70;70.50;;;;;;5064546;28;20033;-62
2022/03/04 09:59:04;;;;;;;8.90;6.22;;;6.70;70.40;;;;;;5061040;28;20105;-62
2022/03/04 10:01:29;;;;;;;7.60;6.50;;;6.70;70.50;;;;;;5065929;28;20032;-62
2022/03/04 10:03:55;;;;;;;7.93;6.30;;;6.70;70.70;;;;;;5067049;28;20035;-61
2022/03/04 10:06:23;;;;;;;9.18;6.63;;;6.70;70.80;;;;;;5064605;28;20661;-61
2022/03/04 10:08:51;;;;;;;7.50;6.07;;;6.70;70.70;;;;;;5061543;28;20040;-61
2022/03/04 10:11:32;;;;;;;7.40;6.28;;;6.80;70.70;;;;;;5065277;28;20071;-61
2022/03/04 10:13:59;;;;;;;;;;;6.80;70.10;;;;;;5064268;28;20048;-60
2022/03/04 10:16:33;;;;;;;6.82;4.75;;;6.70;69.70;;;;;;5064285;28;20513;-61
2022/03/04 10:19:10;;;;;;;7.22;5.43;;;6.70;70.70;;;;;;5055811;28;20036;-62
2022/03/04 10:21:58;;;;;;;8.27;5.80;;;6.80;70.40;;;;;;5058848;28;20147;-62
2022/03/04 10:24:41;;;;;;;8.40;5.82;;;6.80;70.30;;;;;;5064404;28;20472;-61
2022/03/04 10:27:12;;;;;;;6.70;5.38;;;6.90;70.20;;;;;;5061984;28;20036;-62
2022/03/04 10:29:40;;;;;;;;;;;6.90;70.10;;;;;;5057800;28;20032;-63
2022/03/04 10:32:05;;;;;;;7.85;5.30;;;7.00;69.40;;;;;;5042739;28;19983;-62
2022/03/04 10:34:43;;;;;;;8.85;6.25;;;7.00;70.10;;;;;;5058304;28;20036;-62
2022/03/04 10:37:09;;;;;;;7.38;5.88;;;7.10;70.10;;;;;;5059874;28;20074;-62
2022/03/04 10:39:34;;;;;;;7.13;5.78;;;7.20;70.00;;;;;;5039870;28;20753;-62
2022/03/04 10:42:00;;;;;;;7.18;5.88;;;7.20;69.90;;;;;;5046249;28;20521;-62
2022/03/04 10:44:29;;;;;;;10.27;6.00;;;7.30;69.80;;;;;;5040998;28;20492;-62
2022/03/04 10:46:57;;;;;;;9.35;5.65;;;7.40;69.50;;;;;;5041944;28;20397;-62
2022/03/04 10:49:24;;;;;;;9.25;5.75;;;7.50;69.10;;;;;;5045045;28;20037;-62
2022/03/04 10:51:50;;;;;;;7.60;5.55;;;7.50;68.80;;;;;;5038509;28;20441;-62
2022/03/04 10:54:18;;;;;;;9.30;6.60;;;7.60;68.70;;;;;;5041086;28;20040;-62
2022/03/04 10:56:54;;;;;;;6.75;5.55;;;7.60;68.30;;;;;;5045653;28;20056;-62
2022/03/04 10:59:20;;;;;;;8.23;6.88;;;7.70;68.10;;;;;;5045046;28;20495;-62
2022/03/04 11:01:51;;;;;;;7.70;5.65;;;7.70;68.00;;;;;;5038747;28;20484;-62
2022/03/04 11:04:19;;;;;;;7.18;5.80;;;7.70;67.70;;;;;;5041139;28;20029;-62
2022/03/04 11:06:49;;;;;;;8.30;6.28;;;7.70;67.70;;;;;;5045375;28;20465;-62
2022/03/04 11:09:17;;;;;;;7.63;6.30;;;7.70;67.70;;;;;;5042482;28;20644;-62
2022/03/04 11:11:44;;;;;;;7.15;5.60;;;7.70;67.70;;;;;;5037219;28;20029;-62
2022/03/04 11:14:13;;;;;;;6.68;5.70;;;7.70;67.60;;;;;;5042938;28;21198;-62
2022/03/04 11:16:40;;;;;;;8.05;6.03;;;7.70;67.60;;;;;;5040664;28;21018;-60
2022/03/04 11:19:07;;;;;;;8.63;5.93;;;7.70;67.70;;;;;;5041069;28;20033;-60
2022/03/04 11:21:33;;;;;;;8.38;5.85;;;7.70;67.60;;;;;;5046554;28;20446;-60
2022/03/04 11:23:59;;;;;;;8.00;5.78;;;7.60;67.70;;;;;;5048221;28;20041;-60
2022/03/04 11:26:27;;;;;;;9.15;6.20;;;7.60;67.70;;;;;;5048221;28;20100;-60
2022/03/04 11:28:54;;;;;;;9.50;6.00;;;7.50;67.60;;;;;;5052994;28;20029;-60
2022/03/04 11:31:25;;;;;;;10.63;6.20;;;7.40;67.50;;;;;;5047852;28;20067;-60
2022/03/04 11:33:58;;;;;;;7.55;6.18;;;7.30;67.90;;;;;;5042912;28;20033;-60
2022/03/04 11:36:27;;;;;;;9.55;7.43;;;7.30;68.30;;;;;;5042335;28;20072;-60
2022/03/04 11:38:53;;;;;;;7.55;6.13;;;7.30;68.70;;;;;;5050972;28;20044;-60
2022/03/04 11:41:23;;;;;;;7.97;6.22;;;7.30;69.10;;;;;;5061612;28;20460;-60
2022/03/04 11:44:01;;;;;;;8.35;6.40;;;7.30;69.50;;;;;;5062018;28;20021;-60
2022/03/04 11:46:54;;;;;;;10.68;6.93;;;7.30;69.80;;;;;;5059650;28;20033;-60
2022/03/04 11:49:25;;;;;;;9.70;7.07;;;7.30;70.10;;;;;;5053850;28;20041;-60
2022/03/04 11:52:09;;;;;;;10.48;6.72;;;7.30;70.00;;;;;;5057537;28;20040;-60
2022/03/04 11:54:42;;;;;;;8.63;6.35;;;7.30;69.70;;;;;;5061412;28;20025;-60
2022/03/04 11:57:30;;;;;;;8.30;6.60;;;7.30;69.60;;;;;;5059468;28;20037;-59
2022/03/04 12:00:00;;;;;;;8.10;6.57;;;7.30;69.80;;;;;;5060561;28;20073;-58
2022/03/04 12:02:29;;;;;;;9.70;6.60;;;7.30;69.90;;;;;;5060711;28;20017;-60
2022/03/04 12:05:15;;;;;;;9.15;6.55;;;7.30;69.70;;;;;;5060302;28;20017;-58
2022/03/04 12:07:47;;;;;;;9.13;7.15;;;7.30;69.60;;;;;;5045004;28;20068;-56
2022/03/04 12:10:17;;;;;;;;;;;7.30;69.70;;;;;;5059587;28;20573;-58
2022/03/04 12:13:03;;;;;;;8.73;5.78;;;7.20;69.50;;;;;;5055203;28;19952;-58
2022/03/04 12:15:30;;;;;;;8.30;6.95;;;7.20;69.80;;;;;;5062252;28;20020;-59
2022/03/04 12:18:04;;;;;;;10.55;7.63;;;7.20;69.90;;;;;;5056575;28;20489;-57
2022/03/04 12:20:40;;;;;;;10.48;7.85;;;7.20;70.00;;;;;;5057607;28;20396;-59
2022/03/04 12:23:14;;;;;;;9.80;6.68;;;7.10;70.60;;;;;;5061650;28;20024;-58
2022/03/04 12:25:52;;;;;;;7.78;6.20;;;7.10;70.00;;;;;;5060265;28;20032;-58
2022/03/04 12:28:21;;;;;;;9.95;7.18;;;7.10;70.00;;;;;;5060457;28;20500;-58
2022/03/04 12:31:17;;;;;;;8.80;7.15;;;7.10;70.20;;;;;;5059650;28;20032;-57
2022/03/04 12:33:45;;;;;;;9.13;6.30;;;7.10;70.20;;;;;;5035993;28;20044;-58
2022/03/04 12:36:13;;;;;;;7.88;6.32;;;7.00;70.30;;;;;;5053438;28;20039;-58
2022/03/04 12:38:46;;;;;;;8.82;6.53;;;7.00;70.20;;;;;;5056207;28;20527;-58
2022/03/04 12:41:16;;;;;;;9.45;5.93;;;7.00;70.30;;;;;;5060928;28;20032;-60
2022/03/04 12:43:49;;;;;;;8.70;6.38;;;6.90;70.50;;;;;;5065968;28;20025;-57
2022/03/04 12:46:16;;;;;;;7.38;6.22;;;6.90;70.70;;;;;;5067656;28;20031;-58
2022/03/04 12:48:42;;;;;;;8.40;6.15;;;6.80;70.70;;;;;;5071144;28;20516;-60
2022/03/04 12:51:18;;;;;;;6.60;5.25;;;6.80;70.70;;;;;;5053512;28;20037;-58
2022/03/04 12:53:44;;;;;;;8.80;6.13;;;6.80;70.50;;;;;;5058569;28;20081;-57
2022/03/04 12:56:12;;;;;;;7.43;5.95;;;6.80;70.70;;;;;;5056904;28;20120;-58